sensor_id;sensor_type;location;lat;lon;timestamp;temperature;humidity
680;DHT22;322;48.846;9.230;2023-09-30T00:00:39;17.00;99.90
680;DHT22;322;48.846;9.230;2023-09-30T00:03:07;16.90;99.90
680;DHT22;322;48.846;9.230;2023-09-30T00:05:35;16.80;99.90
680;DHT22;322;48.846;9.230;2023-09-30T00:08:04;16.80;99.90
680;DHT22;322;48.846;9.230;2023-09-30T00:10:33;16.80;99.90
680;DHT22;322;48.846;9.230;2023-09-30T00:13:02;16.70;99.90
680;DHT22;322;48.846;9.230;2023-09-30T00:15:30;16.70;99.90
680;DHT22;322;48.846;9.230;2023-09-30T00:17:58;16.70;99.90
680;DHT22;322;48.846;9.230;2023-09-30T00:20:26;16.70;99.90
680;DHT22;322;48.846;9.230;2023-09-30T00:22:54;16.70;99.90
680;DHT22;322;48.846;9.230;2023-09-30T00:25:23;16.80;99.90
680;DHT22;322;48.846;9.230;2023-09-30T00:27:52;16.90;99.90
680;DHT22;322;48.846;9.230;2023-09-30T00:30:20;16.90;99.90
680;DHT22;322;48.846;9.230;2023-09-30T00:32:48;16.90;99.90
680;DHT22;322;48.846;9.230;2023-09-30T00:35:16;16.90;99.90
680;DHT22;322;48.846;9.230;2023-09-30T00:37:44;16.80;99.90
680;DHT22;322;48.846;9.230;2023-09-30T00:40:12;16.80;99.90
680;DHT22;322;48.846;9.230;2023-09-30T00:42:41;16.70;99.90
680;DHT22;322;48.846;9.230;2023-09-30T00:45:10;16.60;99.90
680;DHT22;322;48.846;9.230;2023-09-30T00:47:39;16.40;99.90
680;DHT22;322;48.846;9.230;2023-09-30T00:50:07;16.30;99.90
680;DHT22;322;48.846;9.230;2023-09-30T00:52:38;16.30;99.90
680;DHT22;322;48.846;9.230;2023-09-30T00:55:07;16.20;99.90
680;DHT22;322;48.846;9.230;2023-09-30T00:57:38;16.10;99.90
680;DHT22;322;48.846;9.230;2023-09-30T01:00:08;16.00;99.90
680;DHT22;322;48.846;9.230;2023-09-30T01:02:39;15.90;99.90
680;DHT22;322;48.846;9.230;2023-09-30T01:05:09;15.80;99.90
680;DHT22;322;48.846;9.230;2023-09-30T01:07:37;15.80;99.90
680;DHT22;322;48.846;9.230;2023-09-30T01:10:06;15.70;99.90
680;DHT22;322;48.846;9.230;2023-09-30T01:12:34;15.50;99.90
680;DHT22;322;48.846;9.230;2023-09-30T01:15:03;15.50;99.90
680;DHT22;322;48.846;9.230;2023-09-30T01:17:35;15.40;99.90
680;DHT22;322;48.846;9.230;2023-09-30T01:20:05;15.30;99.90
680;DHT22;322;48.846;9.230;2023-09-30T01:22:35;15.30;99.90
680;DHT22;322;48.846;9.230;2023-09-30T01:25:04;15.40;99.90
680;DHT22;322;48.846;9.230;2023-09-30T01:27:33;15.30;99.90
680;DHT22;322;48.846;9.230;2023-09-30T01:30:01;15.20;99.90
680;DHT22;322;48.846;9.230;2023-09-30T01:32:29;15.10;99.90
680;DHT22;322;48.846;9.230;2023-09-30T01:34:57;15.00;99.90
680;DHT22;322;48.846;9.230;2023-09-30T01:37:26;15.00;99.90
680;DHT22;322;48.846;9.230;2023-09-30T01:39:56;14.90;99.90
680;DHT22;322;48.846;9.230;2023-09-30T01:42:24;14.90;99.90
680;DHT22;322;48.846;9.230;2023-09-30T01:44:53;14.80;99.90
680;DHT22;322;48.846;9.230;2023-09-30T01:47:21;14.80;99.90
680;DHT22;322;48.846;9.230;2023-09-30T01:49:49;14.80;99.90
680;DHT22;322;48.846;9.230;2023-09-30T01:52:17;14.70;99.90
680;DHT22;322;48.846;9.230;2023-09-30T01:54:45;14.60;99.90
680;DHT22;322;48.846;9.230;2023-09-30T01:57:14;14.60;99.90
680;DHT22;322;48.846;9.230;2023-09-30T01:59:42;14.60;99.90
680;DHT22;322;48.846;9.230;2023-09-30T02:02:10;14.70;99.90
680;DHT22;322;48.846;9.230;2023-09-30T02:04:38;14.60;99.90
680;DHT22;322;48.846;9.230;2023-09-30T02:07:06;14.50;99.90
680;DHT22;322;48.846;9.230;2023-09-30T02:09:34;14.50;99.90
680;DHT22;322;48.846;9.230;2023-09-30T02:12:03;14.40;99.90
680;DHT22;322;48.846;9.230;2023-09-30T02:14:33;14.20;99.90
680;DHT22;322;48.846;9.230;2023-09-30T02:17:01;14.10;99.90
680;DHT22;322;48.846;9.230;2023-09-30T02:19:29;14.10;99.90
680;DHT22;322;48.846;9.230;2023-09-30T02:22:00;14.20;99.90
680;DHT22;322;48.846;9.230;2023-09-30T02:24:28;14.20;99.90
680;DHT22;322;48.846;9.230;2023-09-30T02:26:57;14.20;99.90
680;DHT22;322;48.846;9.230;2023-09-30T02:29:25;14.30;99.90
680;DHT22;322;48.846;9.230;2023-09-30T02:31:54;14.40;99.90
680;DHT22;322;48.846;9.230;2023-09-30T02:34:22;14.40;99.90
680;DHT22;322;48.846;9.230;2023-09-30T02:36:50;14.40;99.90
680;DHT22;322;48.846;9.230;2023-09-30T02:39:18;14.50;99.90
680;DHT22;322;48.846;9.230;2023-09-30T02:41:47;14.50;99.90
680;DHT22;322;48.846;9.230;2023-09-30T02:44:17;14.40;99.90
680;DHT22;322;48.846;9.230;2023-09-30T02:46:44;14.30;99.90
680;DHT22;322;48.846;9.230;2023-09-30T02:49:14;14.20;99.90
680;DHT22;322;48.846;9.230;2023-09-30T02:51:42;14.20;99.90
680;DHT22;322;48.846;9.230;2023-09-30T02:54:11;14.20;99.90
680;DHT22;322;48.846;9.230;2023-09-30T02:56:42;14.10;99.90
680;DHT22;322;48.846;9.230;2023-09-30T02:59:13;14.10;99.90
680;DHT22;322;48.846;9.230;2023-09-30T03:01:41;14.20;99.90
680;DHT22;322;48.846;9.230;2023-09-30T03:04:10;14.10;99.90
680;DHT22;322;48.846;9.230;2023-09-30T03:06:40;14.20;99.90
680;DHT22;322;48.846;9.230;2023-09-30T03:09:09;14.20;99.90
680;DHT22;322;48.846;9.230;2023-09-30T03:11:39;14.10;99.90
680;DHT22;322;48.846;9.230;2023-09-30T03:14:10;14.10;99.90
680;DHT22;322;48.846;9.230;2023-09-30T03:16:39;14.20;99.90
680;DHT22;322;48.846;9.230;2023-09-30T03:19:08;14.20;99.90
680;DHT22;322;48.846;9.230;2023-09-30T03:21:39;14.30;99.90
680;DHT22;322;48.846;9.230;2023-09-30T03:24:07;14.50;99.90
680;DHT22;322;48.846;9.230;2023-09-30T03:26:36;14.50;99.90
680;DHT22;322;48.846;9.230;2023-09-30T03:29:07;14.60;99.90
680;DHT22;322;48.846;9.230;2023-09-30T03:31:36;14.60;99.90
680;DHT22;322;48.846;9.230;2023-09-30T03:34:05;14.80;99.90
680;DHT22;322;48.846;9.230;2023-09-30T03:36:33;14.80;99.90
680;DHT22;322;48.846;9.230;2023-09-30T03:39:03;14.90;99.90
680;DHT22;322;48.846;9.230;2023-09-30T03:41:35;15.00;99.90
680;DHT22;322;48.846;9.230;2023-09-30T03:44:03;15.10;99.90
680;DHT22;322;48.846;9.230;2023-09-30T03:46:31;15.00;99.90
680;DHT22;322;48.846;9.230;2023-09-30T03:48:59;15.00;99.90
680;DHT22;322;48.846;9.230;2023-09-30T03:51:27;15.00;99.90
680;DHT22;322;48.846;9.230;2023-09-30T03:53:56;15.00;99.90
680;DHT22;322;48.846;9.230;2023-09-30T03:56:25;14.90;99.90
680;DHT22;322;48.846;9.230;2023-09-30T03:58:53;14.90;99.90
680;DHT22;322;48.846;9.230;2023-09-30T04:01:21;14.80;99.90
680;DHT22;322;48.846;9.230;2023-09-30T04:03:50;14.90;99.90
680;DHT22;322;48.846;9.230;2023-09-30T04:06:22;14.90;99.90
680;DHT22;322;48.846;9.230;2023-09-30T04:08:50;14.90;99.90
680;DHT22;322;48.846;9.230;2023-09-30T04:11:18;14.90;99.90
680;DHT22;322;48.846;9.230;2023-09-30T04:13:48;14.80;99.90
680;DHT22;322;48.846;9.230;2023-09-30T04:16:17;14.80;99.90
680;DHT22;322;48.846;9.230;2023-09-30T04:18:46;14.80;99.90
680;DHT22;322;48.846;9.230;2023-09-30T04:21:16;14.80;99.90
680;DHT22;322;48.846;9.230;2023-09-30T04:23:44;14.80;99.90
680;DHT22;322;48.846;9.230;2023-09-30T04:26:13;14.80;99.90
680;DHT22;322;48.846;9.230;2023-09-30T04:28:41;14.70;99.90
680;DHT22;322;48.846;9.230;2023-09-30T04:31:11;14.70;99.90
680;DHT22;322;48.846;9.230;2023-09-30T04:33:40;14.70;99.90
680;DHT22;322;48.846;9.230;2023-09-30T04:36:08;14.70;99.90
680;DHT22;322;48.846;9.230;2023-09-30T04:38:37;14.80;99.90
680;DHT22;322;48.846;9.230;2023-09-30T04:41:05;14.90;99.90
680;DHT22;322;48.846;9.230;2023-09-30T04:43:34;14.90;99.90
680;DHT22;322;48.846;9.230;2023-09-30T04:46:04;14.90;99.90
680;DHT22;322;48.846;9.230;2023-09-30T04:48:35;15.00;99.90
680;DHT22;322;48.846;9.230;2023-09-30T04:51:06;15.00;99.90
680;DHT22;322;48.846;9.230;2023-09-30T04:53:35;14.90;99.90
680;DHT22;322;48.846;9.230;2023-09-30T04:56:03;14.80;99.90
680;DHT22;322;48.846;9.230;2023-09-30T04:58:31;14.80;99.90
680;DHT22;322;48.846;9.230;2023-09-30T05:00:59;14.80;99.90
680;DHT22;322;48.846;9.230;2023-09-30T05:03:27;14.80;99.90
680;DHT22;322;48.846;9.230;2023-09-30T05:05:57;14.80;99.90
680;DHT22;322;48.846;9.230;2023-09-30T05:08:25;14.70;99.90
680;DHT22;322;48.846;9.230;2023-09-30T05:10:56;14.70;99.90
680;DHT22;322;48.846;9.230;2023-09-30T05:13:24;14.70;99.90
680;DHT22;322;48.846;9.230;2023-09-30T05:15:52;14.80;99.90
680;DHT22;322;48.846;9.230;2023-09-30T05:18:20;14.80;99.90
680;DHT22;322;48.846;9.230;2023-09-30T05:20:48;14.80;99.90
680;DHT22;322;48.846;9.230;2023-09-30T05:23:18;14.60;99.90
680;DHT22;322;48.846;9.230;2023-09-30T05:25:46;14.50;99.90
680;DHT22;322;48.846;9.230;2023-09-30T05:28:14;14.30;99.90
680;DHT22;322;48.846;9.230;2023-09-30T05:30:42;14.40;99.90
680;DHT22;322;48.846;9.230;2023-09-30T05:33:10;14.40;99.90
680;DHT22;322;48.846;9.230;2023-09-30T05:35:41;14.40;99.90
680;DHT22;322;48.846;9.230;2023-09-30T05:38:09;14.30;99.90
680;DHT22;322;48.846;9.230;2023-09-30T05:40:40;14.20;99.90
680;DHT22;322;48.846;9.230;2023-09-30T05:43:10;14.20;99.90
680;DHT22;322;48.846;9.230;2023-09-30T05:45:40;14.40;99.90
680;DHT22;322;48.846;9.230;2023-09-30T05:48:16;14.50;99.90
680;DHT22;322;48.846;9.230;2023-09-30T05:50:44;14.40;99.90
680;DHT22;322;48.846;9.230;2023-09-30T05:53:12;14.40;99.90
680;DHT22;322;48.846;9.230;2023-09-30T05:55:42;14.40;99.90
680;DHT22;322;48.846;9.230;2023-09-30T05:58:12;14.50;99.90
680;DHT22;322;48.846;9.230;2023-09-30T06:00:40;14.60;99.90
680;DHT22;322;48.846;9.230;2023-09-30T06:03:09;14.80;99.90
680;DHT22;322;48.846;9.230;2023-09-30T06:05:39;14.80;99.90
680;DHT22;322;48.846;9.230;2023-09-30T06:08:09;14.90;99.90
680;DHT22;322;48.846;9.230;2023-09-30T06:10:43;15.10;99.90
680;DHT22;322;48.846;9.230;2023-09-30T06:13:11;15.20;99.90
680;DHT22;322;48.846;9.230;2023-09-30T06:15:40;15.20;99.90
680;DHT22;322;48.846;9.230;2023-09-30T06:18:09;15.20;99.90
680;DHT22;322;48.846;9.230;2023-09-30T06:20:40;15.50;99.90
680;DHT22;322;48.846;9.230;2023-09-30T06:23:08;15.60;99.90
680;DHT22;322;48.846;9.230;2023-09-30T06:25:37;15.70;99.90
680;DHT22;322;48.846;9.230;2023-09-30T06:28:08;15.70;99.90
680;DHT22;322;48.846;9.230;2023-09-30T06:30:36;15.70;99.90
680;DHT22;322;48.846;9.230;2023-09-30T06:33:04;15.80;99.90
680;DHT22;322;48.846;9.230;2023-09-30T06:35:33;16.00;99.90
680;DHT22;322;48.846;9.230;2023-09-30T06:38:04;15.90;99.90
680;DHT22;322;48.846;9.230;2023-09-30T06:40:33;15.90;99.90
680;DHT22;322;48.846;9.230;2023-09-30T06:43:07;15.90;99.90
680;DHT22;322;48.846;9.230;2023-09-30T06:45:36;16.00;99.90
680;DHT22;322;48.846;9.230;2023-09-30T06:48:09;16.20;99.90
680;DHT22;322;48.846;9.230;2023-09-30T06:50:40;16.40;99.90
680;DHT22;322;48.846;9.230;2023-09-30T06:53:11;16.50;99.90
680;DHT22;322;48.846;9.230;2023-09-30T06:55:39;16.60;99.90
680;DHT22;322;48.846;9.230;2023-09-30T06:58:08;16.80;99.90
680;DHT22;322;48.846;9.230;2023-09-30T07:00:37;17.00;99.90
680;DHT22;322;48.846;9.230;2023-09-30T07:03:05;17.10;99.90
680;DHT22;322;48.846;9.230;2023-09-30T07:05:34;16.90;99.90
680;DHT22;322;48.846;9.230;2023-09-30T07:08:02;16.90;99.90
680;DHT22;322;48.846;9.230;2023-09-30T07:10:30;16.80;99.90
680;DHT22;322;48.846;9.230;2023-09-30T07:12:58;16.80;99.90
680;DHT22;322;48.846;9.230;2023-09-30T07:15:28;16.80;99.90
680;DHT22;322;48.846;9.230;2023-09-30T07:17:56;16.80;99.90
680;DHT22;322;48.846;9.230;2023-09-30T07:20:24;16.70;99.90
680;DHT22;322;48.846;9.230;2023-09-30T07:22:52;16.70;99.90
680;DHT22;322;48.846;9.230;2023-09-30T07:25:40;16.60;99.90
680;DHT22;322;48.846;9.230;2023-09-30T07:28:09;16.70;99.90
680;DHT22;322;48.846;9.230;2023-09-30T07:30:40;16.80;99.90
680;DHT22;322;48.846;9.230;2023-09-30T07:33:08;16.90;99.90
680;DHT22;322;48.846;9.230;2023-09-30T07:35:37;16.80;99.90
680;DHT22;322;48.846;9.230;2023-09-30T07:38:06;16.90;99.90
680;DHT22;322;48.846;9.230;2023-09-30T07:40:34;16.90;99.90
680;DHT22;322;48.846;9.230;2023-09-30T07:43:02;16.70;99.90
680;DHT22;322;48.846;9.230;2023-09-30T07:45:30;16.70;99.90
680;DHT22;322;48.846;9.230;2023-09-30T07:48:00;16.60;99.90
680;DHT22;322;48.846;9.230;2023-09-30T07:50:30;16.80;99.90
680;DHT22;322;48.846;9.230;2023-09-30T07:52:58;16.90;99.90
680;DHT22;322;48.846;9.230;2023-09-30T07:55:27;16.90;99.90
680;DHT22;322;48.846;9.230;2023-09-30T07:57:56;17.00;99.90
680;DHT22;322;48.846;9.230;2023-09-30T08:00:26;17.10;99.90
680;DHT22;322;48.846;9.230;2023-09-30T08:02:54;17.30;99.90
680;DHT22;322;48.846;9.230;2023-09-30T08:05:23;17.40;99.90
680;DHT22;322;48.846;9.230;2023-09-30T08:07:51;17.60;99.90
680;DHT22;322;48.846;9.230;2023-09-30T08:10:20;17.70;99.90
680;DHT22;322;48.846;9.230;2023-09-30T08:12:48;17.70;99.90
680;DHT22;322;48.846;9.230;2023-09-30T08:15:16;17.70;99.90
680;DHT22;322;48.846;9.230;2023-09-30T08:17:45;17.80;99.90
680;DHT22;322;48.846;9.230;2023-09-30T08:20:13;18.00;99.90
680;DHT22;322;48.846;9.230;2023-09-30T08:22:42;18.30;99.90
680;DHT22;322;48.846;9.230;2023-09-30T08:25:11;18.50;99.90
680;DHT22;322;48.846;9.230;2023-09-30T08:27:39;18.70;99.90
680;DHT22;322;48.846;9.230;2023-09-30T08:30:08;18.90;99.90
680;DHT22;322;48.846;9.230;2023-09-30T08:32:37;19.10;99.90
680;DHT22;322;48.846;9.230;2023-09-30T08:35:06;19.40;99.90
680;DHT22;322;48.846;9.230;2023-09-30T08:37:34;19.30;99.90
680;DHT22;322;48.846;9.230;2023-09-30T08:40:05;19.20;99.90
680;DHT22;322;48.846;9.230;2023-09-30T08:42:33;19.30;99.90
680;DHT22;322;48.846;9.230;2023-09-30T08:45:02;19.50;99.90
680;DHT22;322;48.846;9.230;2023-09-30T08:47:32;19.70;99.90
680;DHT22;322;48.846;9.230;2023-09-30T08:50:05;19.80;99.90
680;DHT22;322;48.846;9.230;2023-09-30T08:52:34;20.10;99.90
680;DHT22;322;48.846;9.230;2023-09-30T08:55:08;20.40;99.90
680;DHT22;322;48.846;9.230;2023-09-30T08:57:38;20.70;99.90
680;DHT22;322;48.846;9.230;2023-09-30T09:00:09;20.70;99.90
680;DHT22;322;48.846;9.230;2023-09-30T09:02:40;20.70;99.90
680;DHT22;322;48.846;9.230;2023-09-30T09:05:09;20.60;99.90
680;DHT22;322;48.846;9.230;2023-09-30T09:07:38;20.50;99.90
680;DHT22;322;48.846;9.230;2023-09-30T09:10:09;20.60;99.90
680;DHT22;322;48.846;9.230;2023-09-30T09:12:38;20.60;99.90
680;DHT22;322;48.846;9.230;2023-09-30T09:15:08;20.70;99.90
680;DHT22;322;48.846;9.230;2023-09-30T09:17:47;20.70;99.90
680;DHT22;322;48.846;9.230;2023-09-30T09:20:18;21.10;99.90
680;DHT22;322;48.846;9.230;2023-09-30T09:22:48;21.20;99.90
680;DHT22;322;48.846;9.230;2023-09-30T09:25:19;21.40;99.90
680;DHT22;322;48.846;9.230;2023-09-30T09:27:50;21.60;99.90
680;DHT22;322;48.846;9.230;2023-09-30T09:30:19;21.80;99.90
680;DHT22;322;48.846;9.230;2023-09-30T09:32:58;21.90;99.90
680;DHT22;322;48.846;9.230;2023-09-30T09:35:27;22.10;99.90
680;DHT22;322;48.846;9.230;2023-09-30T09:37:58;22.30;99.90
680;DHT22;322;48.846;9.230;2023-09-30T09:40:29;22.50;99.90
680;DHT22;322;48.846;9.230;2023-09-30T09:42:58;22.70;99.90
680;DHT22;322;48.846;9.230;2023-09-30T09:45:27;22.70;99.90
680;DHT22;322;48.846;9.230;2023-09-30T09:48:00;22.50;99.90
680;DHT22;322;48.846;9.230;2023-09-30T09:50:28;22.60;99.90
680;DHT22;322;48.846;9.230;2023-09-30T09:52:59;22.60;99.90
680;DHT22;322;48.846;9.230;2023-09-30T09:55:28;22.90;99.90
680;DHT22;322;48.846;9.230;2023-09-30T09:57:58;23.10;99.90
680;DHT22;322;48.846;9.230;2023-09-30T10:00:29;23.50;99.90
680;DHT22;322;48.846;9.230;2023-09-30T10:02:58;23.80;99.90
680;DHT22;322;48.846;9.230;2023-09-30T10:05:27;24.20;99.90
680;DHT22;322;48.846;9.230;2023-09-30T10:08:00;24.50;99.90
680;DHT22;322;48.846;9.230;2023-09-30T10:10:35;24.60;99.90
680;DHT22;322;48.846;9.230;2023-09-30T10:13:03;25.00;99.90
680;DHT22;322;48.846;9.230;2023-09-30T10:15:37;25.20;98.60
680;DHT22;322;48.846;9.230;2023-09-30T10:18:08;25.10;98.30
680;DHT22;322;48.846;9.230;2023-09-30T10:20:42;24.80;96.70
680;DHT22;322;48.846;9.230;2023-09-30T10:23:23;24.80;97.50
680;DHT22;322;48.846;9.230;2023-09-30T10:25:55;25.30;96.60
680;DHT22;322;48.846;9.230;2023-09-30T10:28:42;25.80;95.60
680;DHT22;322;48.846;9.230;2023-09-30T10:31:14;26.20;95.80
680;DHT22;322;48.846;9.230;2023-09-30T10:36:58;26.50;92.60
680;DHT22;322;48.846;9.230;2023-09-30T10:39:54;26.00;91.90
680;DHT22;322;48.846;9.230;2023-09-30T10:42:48;26.40;91.80
680;DHT22;322;48.846;9.230;2023-09-30T10:45:51;26.40;90.00
680;DHT22;322;48.846;9.230;2023-09-30T10:48:35;26.70;90.00
680;DHT22;322;48.846;9.230;2023-09-30T10:51:11;26.60;90.70
680;DHT22;322;48.846;9.230;2023-09-30T10:53:45;25.80;88.00
680;DHT22;322;48.846;9.230;2023-09-30T10:56:13;24.30;91.70
680;DHT22;322;48.846;9.230;2023-09-30T10:58:44;23.70;93.30
680;DHT22;322;48.846;9.230;2023-09-30T11:01:13;23.10;92.80
680;DHT22;322;48.846;9.230;2023-09-30T11:03:42;22.50;94.10
680;DHT22;322;48.846;9.230;2023-09-30T11:06:13;21.90;95.70
680;DHT22;322;48.846;9.230;2023-09-30T11:08:46;21.50;97.60
680;DHT22;322;48.846;9.230;2023-09-30T11:11:14;21.50;98.10
680;DHT22;322;48.846;9.230;2023-09-30T11:13:43;22.00;98.40
680;DHT22;322;48.846;9.230;2023-09-30T11:16:11;23.30;96.50
680;DHT22;322;48.846;9.230;2023-09-30T11:18:39;24.50;93.10
680;DHT22;322;48.846;9.230;2023-09-30T11:21:09;25.50;91.40
680;DHT22;322;48.846;9.230;2023-09-30T11:23:40;26.20;87.20
680;DHT22;322;48.846;9.230;2023-09-30T11:26:09;26.90;87.00
680;DHT22;322;48.846;9.230;2023-09-30T11:28:38;27.80;77.90
680;DHT22;322;48.846;9.230;2023-09-30T11:31:10;28.00;73.90
680;DHT22;322;48.846;9.230;2023-09-30T11:33:52;27.30;72.80
680;DHT22;322;48.846;9.230;2023-09-30T11:36:20;26.90;74.10
680;DHT22;322;48.846;9.230;2023-09-30T11:38:50;26.70;73.00
680;DHT22;322;48.846;9.230;2023-09-30T11:41:20;26.60;75.50
680;DHT22;322;48.846;9.230;2023-09-30T11:43:59;26.30;73.60
680;DHT22;322;48.846;9.230;2023-09-30T11:46:48;26.00;74.30
680;DHT22;322;48.846;9.230;2023-09-30T11:49:28;25.80;74.30
680;DHT22;322;48.846;9.230;2023-09-30T11:51:56;24.60;78.90
680;DHT22;322;48.846;9.230;2023-09-30T11:54:30;23.40;83.00
680;DHT22;322;48.846;9.230;2023-09-30T11:56:59;22.60;86.00
680;DHT22;322;48.846;9.230;2023-09-30T11:59:28;22.50;86.70
680;DHT22;322;48.846;9.230;2023-09-30T12:01:57;23.00;83.40
680;DHT22;322;48.846;9.230;2023-09-30T12:04:40;24.10;80.70
680;DHT22;322;48.846;9.230;2023-09-30T12:07:09;25.80;78.30
680;DHT22;322;48.846;9.230;2023-09-30T12:09:37;26.40;69.10
680;DHT22;322;48.846;9.230;2023-09-30T12:12:07;27.20;73.10
680;DHT22;322;48.846;9.230;2023-09-30T12:14:37;28.10;68.70
680;DHT22;322;48.846;9.230;2023-09-30T12:17:06;28.90;61.40
680;DHT22;322;48.846;9.230;2023-09-30T12:19:38;29.20;61.90
680;DHT22;322;48.846;9.230;2023-09-30T12:22:08;28.60;57.40
680;DHT22;322;48.846;9.230;2023-09-30T12:24:37;28.10;58.80
680;DHT22;322;48.846;9.230;2023-09-30T12:27:06;28.20;58.00
680;DHT22;322;48.846;9.230;2023-09-30T12:29:34;28.70;56.70
680;DHT22;322;48.846;9.230;2023-09-30T12:32:06;28.70;58.30
680;DHT22;322;48.846;9.230;2023-09-30T12:34:35;28.30;56.60
680;DHT22;322;48.846;9.230;2023-09-30T12:37:03;28.00;58.70
680;DHT22;322;48.846;9.230;2023-09-30T12:39:31;28.00;58.20
680;DHT22;322;48.846;9.230;2023-09-30T12:42:00;28.30;57.10
680;DHT22;322;48.846;9.230;2023-09-30T12:44:36;26.80;58.00
680;DHT22;322;48.846;9.230;2023-09-30T12:47:05;25.50;60.00
680;DHT22;322;48.846;9.230;2023-09-30T12:49:33;24.50;63.50
680;DHT22;322;48.846;9.230;2023-09-30T12:52:02;23.90;65.40
680;DHT22;322;48.846;9.230;2023-09-30T12:54:30;23.50;66.00
680;DHT22;322;48.846;9.230;2023-09-30T12:56:58;23.90;66.30
680;DHT22;322;48.846;9.230;2023-09-30T12:59:26;24.50;64.30
680;DHT22;322;48.846;9.230;2023-09-30T13:01:54;25.80;66.00
680;DHT22;322;48.846;9.230;2023-09-30T13:04:23;26.00;65.20
680;DHT22;322;48.846;9.230;2023-09-30T13:06:52;25.30;65.90
680;DHT22;322;48.846;9.230;2023-09-30T13:09:20;24.10;69.40
680;DHT22;322;48.846;9.230;2023-09-30T13:11:49;23.70;71.60
680;DHT22;322;48.846;9.230;2023-09-30T13:14:17;23.20;72.90
680;DHT22;322;48.846;9.230;2023-09-30T13:16:45;23.30;72.90
680;DHT22;322;48.846;9.230;2023-09-30T13:19:13;23.20;73.70
680;DHT22;322;48.846;9.230;2023-09-30T13:21:44;23.00;72.90
680;DHT22;322;48.846;9.230;2023-09-30T13:24:12;22.80;74.70
680;DHT22;322;48.846;9.230;2023-09-30T13:26:40;23.00;75.80
680;DHT22;322;48.846;9.230;2023-09-30T13:29:08;23.00;75.00
680;DHT22;322;48.846;9.230;2023-09-30T13:31:38;22.60;75.20
680;DHT22;322;48.846;9.230;2023-09-30T13:34:06;22.60;79.40
680;DHT22;322;48.846;9.230;2023-09-30T13:36:34;22.90;78.60
680;DHT22;322;48.846;9.230;2023-09-30T13:39:04;23.20;80.60
680;DHT22;322;48.846;9.230;2023-09-30T13:41:34;23.00;73.70
680;DHT22;322;48.846;9.230;2023-09-30T13:44:03;22.80;74.70
680;DHT22;322;48.846;9.230;2023-09-30T13:46:31;22.60;75.00
680;DHT22;322;48.846;9.230;2023-09-30T13:48:59;22.50;74.20
680;DHT22;322;48.846;9.230;2023-09-30T13:51:27;22.40;75.40
680;DHT22;322;48.846;9.230;2023-09-30T13:53:55;22.50;75.20
680;DHT22;322;48.846;9.230;2023-09-30T13:56:25;22.50;76.20
680;DHT22;322;48.846;9.230;2023-09-30T13:58:55;22.60;77.10
680;DHT22;322;48.846;9.230;2023-09-30T14:01:24;22.40;76.50
680;DHT22;322;48.846;9.230;2023-09-30T14:03:54;22.10;78.20
680;DHT22;322;48.846;9.230;2023-09-30T14:06:24;21.80;79.10
680;DHT22;322;48.846;9.230;2023-09-30T14:08:52;21.50;79.80
680;DHT22;322;48.846;9.230;2023-09-30T14:11:20;21.10;80.40
680;DHT22;322;48.846;9.230;2023-09-30T14:13:49;21.00;81.10
680;DHT22;322;48.846;9.230;2023-09-30T14:16:17;20.90;81.10
680;DHT22;322;48.846;9.230;2023-09-30T14:18:45;21.00;80.70
680;DHT22;322;48.846;9.230;2023-09-30T14:21:14;21.00;81.20
680;DHT22;322;48.846;9.230;2023-09-30T14:23:45;21.20;79.90
680;DHT22;322;48.846;9.230;2023-09-30T14:26:13;21.20;79.90
680;DHT22;322;48.846;9.230;2023-09-30T14:28:40;21.30;78.60
680;DHT22;322;48.846;9.230;2023-09-30T14:31:10;21.30;80.50
680;DHT22;322;48.846;9.230;2023-09-30T14:33:38;21.30;80.50
680;DHT22;322;48.846;9.230;2023-09-30T14:36:06;21.30;81.00
680;DHT22;322;48.846;9.230;2023-09-30T14:38:34;21.30;80.90
680;DHT22;322;48.846;9.230;2023-09-30T14:41:06;21.40;80.20
680;DHT22;322;48.846;9.230;2023-09-30T14:43:34;21.40;79.10
680;DHT22;322;48.846;9.230;2023-09-30T14:46:02;21.60;80.70
680;DHT22;322;48.846;9.230;2023-09-30T14:48:32;21.60;79.20
680;DHT22;322;48.846;9.230;2023-09-30T14:51:00;21.70;78.50
680;DHT22;322;48.846;9.230;2023-09-30T14:53:31;21.70;77.70
680;DHT22;322;48.846;9.230;2023-09-30T14:55:59;21.60;77.90
680;DHT22;322;48.846;9.230;2023-09-30T14:58:27;21.40;78.00
680;DHT22;322;48.846;9.230;2023-09-30T15:00:55;21.30;77.90
680;DHT22;322;48.846;9.230;2023-09-30T15:03:23;21.20;79.30
680;DHT22;322;48.846;9.230;2023-09-30T15:05:58;21.10;80.90
680;DHT22;322;48.846;9.230;2023-09-30T15:08:28;21.00;80.00
680;DHT22;322;48.846;9.230;2023-09-30T15:10:57;20.90;81.00
680;DHT22;322;48.846;9.230;2023-09-30T15:13:25;20.70;81.30
680;DHT22;322;48.846;9.230;2023-09-30T15:15:54;20.60;81.80
680;DHT22;322;48.846;9.230;2023-09-30T15:18:22;20.60;81.90
680;DHT22;322;48.846;9.230;2023-09-30T15:20:50;20.60;82.00
680;DHT22;322;48.846;9.230;2023-09-30T15:23:19;20.70;81.10
680;DHT22;322;48.846;9.230;2023-09-30T15:25:47;20.70;81.60
680;DHT22;322;48.846;9.230;2023-09-30T15:28:16;20.80;82.20
680;DHT22;322;48.846;9.230;2023-09-30T15:30:44;20.80;80.90
680;DHT22;322;48.846;9.230;2023-09-30T15:33:12;20.90;81.60
680;DHT22;322;48.846;9.230;2023-09-30T15:35:39;20.80;80.90
680;DHT22;322;48.846;9.230;2023-09-30T15:38:07;20.80;81.10
680;DHT22;322;48.846;9.230;2023-09-30T15:40:51;20.80;81.20
680;DHT22;322;48.846;9.230;2023-09-30T15:43:20;20.70;81.90
680;DHT22;322;48.846;9.230;2023-09-30T15:45:49;20.70;81.50
680;DHT22;322;48.846;9.230;2023-09-30T15:48:17;20.70;82.00
680;DHT22;322;48.846;9.230;2023-09-30T15:50:46;20.60;82.10
680;DHT22;322;48.846;9.230;2023-09-30T15:53:14;20.60;82.30
680;DHT22;322;48.846;9.230;2023-09-30T15:55:44;20.60;83.40
680;DHT22;322;48.846;9.230;2023-09-30T15:58:13;20.70;82.20
680;DHT22;322;48.846;9.230;2023-09-30T16:00:41;20.70;81.50
680;DHT22;322;48.846;9.230;2023-09-30T16:03:10;20.70;81.80
680;DHT22;322;48.846;9.230;2023-09-30T16:05:39;20.70;82.20
680;DHT22;322;48.846;9.230;2023-09-30T16:08:08;20.60;83.40
680;DHT22;322;48.846;9.230;2023-09-30T16:10:37;20.60;82.80
680;DHT22;322;48.846;9.230;2023-09-30T16:13:07;20.40;83.40
680;DHT22;322;48.846;9.230;2023-09-30T16:15:38;20.30;83.70
680;DHT22;322;48.846;9.230;2023-09-30T16:18:07;20.10;84.20
680;DHT22;322;48.846;9.230;2023-09-30T16:20:35;20.00;84.40
680;DHT22;322;48.846;9.230;2023-09-30T16:23:03;19.90;85.30
680;DHT22;322;48.846;9.230;2023-09-30T16:25:32;19.80;86.00
680;DHT22;322;48.846;9.230;2023-09-30T16:28:01;19.70;86.70
680;DHT22;322;48.846;9.230;2023-09-30T16:30:31;19.60;87.10
680;DHT22;322;48.846;9.230;2023-09-30T16:32:59;19.50;87.40
680;DHT22;322;48.846;9.230;2023-09-30T16:35:27;19.40;87.60
680;DHT22;322;48.846;9.230;2023-09-30T16:37:55;19.30;88.40
680;DHT22;322;48.846;9.230;2023-09-30T16:40:23;19.30;88.90
680;DHT22;322;48.846;9.230;2023-09-30T16:42:52;19.20;88.60
680;DHT22;322;48.846;9.230;2023-09-30T16:45:21;19.10;89.50
680;DHT22;322;48.846;9.230;2023-09-30T16:47:53;19.00;89.70
680;DHT22;322;48.846;9.230;2023-09-30T16:50:21;18.90;90.30
680;DHT22;322;48.846;9.230;2023-09-30T16:52:50;18.80;90.70